createdAt,value
2018-12-25T00:00:42.619Z,4.44
2018-12-25T00:01:42.606Z,4.56
2018-12-25T00:02:42.591Z,4.50
2018-12-25T00:03:42.576Z,4.50
2018-12-25T00:04:42.565Z,4.48
2018-12-25T00:05:42.704Z,4.52
2018-12-25T00:06:42.618Z,4.50
2018-12-25T00:07:42.538Z,4.44
2018-12-25T00:08:42.541Z,4.49
2018-12-25T00:09:42.516Z,4.49
2018-12-25T00:10:42.501Z,4.48
2018-12-25T00:11:42.903Z,4.52
2018-12-25T00:12:42.485Z,4.44
2018-12-25T00:13:42.473Z,4.45
2018-12-25T00:14:42.463Z,4.45
2018-12-25T00:15:42.521Z,4.44
2018-12-25T00:16:42.438Z,4.45
2018-12-25T00:17:42.648Z,4.44
2018-12-25T00:18:42.431Z,4.44
2018-12-25T00:19:42.400Z,4.52
2018-12-25T00:20:42.394Z,4.50
2018-12-25T00:21:42.381Z,4.45
2018-12-25T00:23:03.666Z,4.45
2018-12-25T00:23:42.362Z,4.48
2018-12-25T00:24:42.351Z,4.45
2018-12-25T00:25:42.340Z,4.48
2018-12-25T00:26:42.335Z,4.49
2018-12-25T00:27:42.317Z,4.58
2018-12-25T00:28:42.589Z,4.60
2018-12-25T00:29:42.296Z,4.60
2018-12-25T00:30:42.378Z,4.59
2018-12-25T00:31:42.283Z,4.60
2018-12-25T00:32:42.272Z,4.55
2018-12-25T00:33:42.254Z,4.58
2018-12-25T00:34:42.419Z,4.52
2018-12-25T00:35:42.235Z,4.58
2018-12-25T00:36:42.219Z,4.55
2018-12-25T00:37:42.211Z,4.55
2018-12-25T00:38:42.205Z,4.59
2018-12-25T00:39:42.190Z,4.66
2018-12-25T00:40:42.419Z,4.66
2018-12-25T00:41:42.181Z,4.59
2018-12-25T00:42:42.158Z,4.58
2018-12-25T00:43:42.156Z,4.59
2018-12-25T00:44:42.134Z,4.59
2018-12-25T00:45:42.232Z,4.55
2018-12-25T00:46:42.399Z,4.58
2018-12-25T00:47:42.134Z,4.60
2018-12-25T00:48:42.089Z,4.56
2018-12-25T00:49:42.077Z,4.56
2018-12-25T00:50:42.068Z,4.53
2018-12-25T00:51:42.059Z,4.56
2018-12-25T00:52:42.194Z,4.56
2018-12-25T00:53:42.035Z,4.58
2018-12-25T00:54:43.238Z,4.55
2018-12-25T00:55:42.013Z,4.49
2018-12-25T00:56:42.001Z,4.56
2018-12-25T00:57:42.003Z,4.58
2018-12-25T00:58:44.557Z,4.59
2018-12-25T00:59:41.970Z,4.48
2018-12-25T01:00:42.021Z,4.52
2018-12-25T01:01:42.243Z,4.59
2018-12-25T01:02:41.938Z,4.60
2018-12-25T01:03:41.924Z,4.58
2018-12-25T01:04:42.217Z,4.63
2018-12-25T01:05:41.903Z,4.55
2018-12-25T01:06:41.896Z,4.58
2018-12-25T01:07:41.901Z,4.58
2018-12-25T01:08:41.874Z,4.59
2018-12-25T01:09:43.797Z,4.56
2018-12-25T01:10:42.000Z,4.59
2018-12-25T01:11:41.844Z,4.56
2018-12-25T01:12:41.829Z,4.60
2018-12-25T01:13:41.824Z,4.59
2018-12-25T01:14:41.810Z,4.55
2018-12-25T01:15:41.800Z,4.60
2018-12-25T01:16:42.088Z,4.70
2018-12-25T01:17:41.839Z,4.62
2018-12-25T01:18:41.771Z,4.68
2018-12-25T01:19:43.206Z,4.70
2018-12-25T01:20:41.744Z,4.67
2018-12-25T01:21:41.732Z,4.59
2018-12-25T01:22:42.038Z,4.71
2018-12-25T01:23:41.713Z,4.70
2018-12-25T01:24:41.702Z,4.68
2018-12-25T01:25:41.691Z,4.71
2018-12-25T01:26:41.689Z,4.68
2018-12-25T01:27:41.675Z,4.71
2018-12-25T01:28:41.976Z,4.66
2018-12-25T01:29:41.645Z,4.70
2018-12-25T01:30:41.794Z,4.74
2018-12-25T01:31:41.624Z,4.71
2018-12-25T01:32:41.612Z,4.73
2018-12-25T01:33:41.604Z,4.80
2018-12-25T01:34:42.021Z,4.75
2018-12-25T01:35:41.594Z,4.73
2018-12-25T01:36:41.571Z,4.75
2018-12-25T01:37:41.560Z,4.63
2018-12-25T01:38:41.548Z,4.71
2018-12-25T01:39:41.539Z,4.67
2018-12-25T01:40:42.848Z,4.70
2018-12-25T01:41:41.516Z,4.71
2018-12-25T01:42:41.508Z,4.80
2018-12-25T01:43:41.496Z,4.78
2018-12-25T01:44:41.487Z,4.66
2018-12-25T01:45:41.476Z,4.82
2018-12-25T01:46:41.758Z,4.68
2018-12-25T01:47:41.508Z,4.71
2018-12-25T01:48:41.514Z,4.74
2018-12-25T01:49:41.573Z,4.67
2018-12-25T01:50:41.484Z,4.71
2018-12-25T01:51:41.637Z,4.66
2018-12-25T01:52:41.612Z,4.74
2018-12-25T01:53:41.699Z,4.78
2018-12-25T01:54:41.372Z,4.82
2018-12-25T01:55:41.371Z,4.82
2018-12-25T01:56:41.371Z,4.70
2018-12-25T01:57:41.344Z,4.74
2018-12-25T01:58:41.602Z,4.84
2018-12-25T01:59:41.341Z,4.77
2018-12-25T02:00:41.312Z,4.62
2018-12-25T02:01:41.846Z,4.67
2018-12-25T02:02:41.347Z,4.70
2018-12-25T02:03:41.335Z,4.75
2018-12-25T02:04:41.546Z,4.62
2018-12-25T02:05:41.317Z,4.66
2018-12-25T02:06:41.365Z,4.77
2018-12-25T02:07:41.231Z,4.70
2018-12-25T02:08:41.543Z,4.77
2018-12-25T02:09:41.212Z,4.70
2018-12-25T02:10:42.017Z,4.78
2018-12-25T02:11:41.194Z,4.68
2018-12-25T02:12:41.177Z,4.62
2018-12-25T02:13:41.169Z,4.74
2018-12-25T02:14:41.152Z,4.66
2018-12-25T02:15:41.150Z,4.70
2018-12-25T02:16:41.772Z,4.80
2018-12-25T02:17:41.129Z,4.82
2018-12-25T02:18:41.116Z,4.73
2018-12-25T02:19:41.106Z,4.74
2018-12-25T02:20:41.091Z,4.75
2018-12-25T02:21:41.616Z,4.73
2018-12-25T02:22:42.918Z,4.73
2018-12-25T02:23:41.157Z,4.80
2018-12-25T02:24:41.050Z,4.71
2018-12-25T02:25:41.036Z,4.86
2018-12-25T02:26:41.029Z,4.70
2018-12-25T02:27:41.146Z,4.77
2018-12-25T02:28:41.160Z,4.80
2018-12-25T02:29:41.002Z,4.86
2018-12-25T02:30:41.022Z,4.74
2018-12-25T02:31:40.974Z,4.78
2018-12-25T02:32:40.974Z,4.86
2018-12-25T02:33:40.952Z,4.78
2018-12-25T02:34:41.088Z,4.77
2018-12-25T02:35:40.935Z,4.84
2018-12-25T02:36:40.917Z,4.86
2018-12-25T02:37:40.916Z,4.77
2018-12-25T02:38:41.007Z,4.87
2018-12-25T02:39:40.889Z,4.78
2018-12-25T02:40:41.137Z,4.89
2018-12-25T02:41:40.859Z,4.87
2018-12-25T02:42:40.851Z,4.92
2018-12-25T02:43:40.842Z,4.84
2018-12-25T02:44:40.918Z,4.87
2018-12-25T02:45:40.820Z,4.89
2018-12-25T02:46:42.354Z,4.87
2018-12-25T02:47:40.797Z,4.86
2018-12-25T02:48:40.787Z,4.90
2018-12-25T02:49:50.060Z,5.00
2018-12-25T02:50:41.763Z,4.92
2018-12-25T02:51:40.753Z,4.89
2018-12-25T02:52:40.870Z,4.90
2018-12-25T02:53:56.006Z,4.87
2018-12-25T02:54:40.722Z,4.99
2018-12-25T02:55:40.710Z,4.93
2018-12-25T02:56:40.699Z,4.94
2018-12-25T02:57:40.805Z,5.02
2018-12-25T02:58:40.874Z,4.93
2018-12-25T02:59:40.682Z,5.00
2018-12-25T03:00:40.654Z,4.97
2018-12-25T03:01:40.679Z,5.07
2018-12-25T03:02:40.648Z,4.99
2018-12-25T03:03:40.620Z,5.05
2018-12-25T03:04:40.886Z,5.05
2018-12-25T03:05:40.603Z,5.02
2018-12-25T03:06:40.589Z,4.97
2018-12-25T03:07:40.577Z,5.00
2018-12-25T03:08:40.566Z,5.07
2018-12-25T03:09:40.558Z,4.97
2018-12-25T03:10:40.673Z,5.05
2018-12-25T03:11:40.540Z,4.97
2018-12-25T03:12:40.521Z,5.07
2018-12-25T03:13:40.514Z,5.10
2018-12-25T03:14:40.613Z,5.00
2018-12-25T03:15:40.495Z,5.02
2018-12-25T03:16:40.901Z,5.00
2018-12-25T03:17:40.475Z,4.99
2018-12-25T03:18:40.606Z,5.02
2018-12-25T03:19:40.445Z,5.07
2018-12-25T03:20:40.441Z,4.93
2018-12-25T03:21:40.422Z,4.97
2018-12-25T03:22:40.635Z,5.00
2018-12-25T03:23:40.400Z,4.99
2018-12-25T03:24:40.387Z,5.00
2018-12-25T03:25:40.519Z,5.08
2018-12-25T03:26:40.367Z,4.97
2018-12-25T03:27:40.359Z,5.05
2018-12-25T03:28:40.499Z,5.00
2018-12-25T03:29:40.360Z,4.99
2018-12-25T03:30:40.326Z,5.00
2018-12-25T03:31:40.315Z,5.08
2018-12-25T03:32:40.304Z,5.07
2018-12-25T03:33:40.323Z,4.97
2018-12-25T03:35:01.670Z,4.99
2018-12-25T03:35:40.283Z,4.99
2018-12-25T03:36:40.257Z,5.02
2018-12-25T03:37:40.244Z,4.97
2018-12-25T03:38:40.260Z,5.05
2018-12-25T03:39:40.223Z,4.99
2018-12-25T03:40:40.497Z,5.12
2018-12-25T03:41:40.199Z,5.02
2018-12-25T03:42:40.200Z,5.05
2018-12-25T03:43:40.185Z,5.07
2018-12-25T03:44:40.176Z,5.08
2018-12-25T03:45:40.157Z,5.08
2018-12-25T03:46:40.480Z,5.08
2018-12-25T03:47:40.139Z,5.15
2018-12-25T03:48:40.124Z,5.11
2018-12-25T03:49:40.114Z,5.18
2018-12-25T03:50:40.115Z,5.05
2018-12-25T03:51:40.098Z,5.15
2018-12-25T03:52:40.442Z,5.14
2018-12-25T03:53:40.069Z,5.12
2018-12-25T03:54:40.061Z,5.11
2018-12-25T03:55:40.051Z,5.15
2018-12-25T03:56:40.045Z,5.10
2018-12-25T03:57:40.023Z,5.11
2018-12-25T03:58:40.138Z,5.18
2018-12-25T03:59:40.001Z,5.15
2018-12-25T04:00:40.003Z,5.20
2018-12-25T04:01:40.006Z,5.15
2018-12-25T04:02:39.967Z,5.17
2018-12-25T04:03:40.045Z,5.17
2018-12-25T04:04:40.714Z,5.17
2018-12-25T04:05:39.993Z,5.15
2018-12-25T04:06:39.924Z,5.15
2018-12-25T04:07:42.524Z,5.12
2018-12-25T04:08:39.904Z,5.18
2018-12-25T04:09:39.901Z,5.20
2018-12-25T04:10:40.009Z,5.18
2018-12-25T04:11:39.873Z,5.23
2018-12-25T04:12:39.858Z,5.18
2018-12-25T04:13:39.858Z,5.21
2018-12-25T04:14:39.846Z,5.21
2018-12-25T04:15:39.826Z,5.21
2018-12-25T04:16:40.006Z,5.21
2018-12-25T04:17:39.802Z,5.21
2018-12-25T04:18:39.827Z,5.25
2018-12-25T04:19:39.781Z,5.23
2018-12-25T04:20:39.845Z,5.23
2018-12-25T04:21:39.759Z,5.25
2018-12-25T04:22:40.234Z,5.23
2018-12-25T04:23:39.740Z,5.25
2018-12-25T04:24:39.725Z,5.26
2018-12-25T04:25:39.714Z,5.35
2018-12-25T04:26:39.703Z,5.33
2018-12-25T04:27:39.693Z,5.33
2018-12-25T04:28:39.949Z,5.33
2018-12-25T04:29:39.701Z,5.36
2018-12-25T04:30:39.660Z,5.35
2018-12-25T04:31:39.687Z,5.30
2018-12-25T04:32:39.637Z,5.33
2018-12-25T04:33:39.680Z,5.39
2018-12-25T04:34:39.924Z,5.41
2018-12-25T04:35:39.666Z,5.35
2018-12-25T04:36:39.591Z,5.35
2018-12-25T04:37:39.709Z,5.32
2018-12-25T04:38:39.574Z,5.35
2018-12-25T04:39:39.597Z,5.39
2018-12-25T04:40:39.712Z,5.39
2018-12-25T04:41:39.537Z,5.33
2018-12-25T04:42:39.526Z,5.41
2018-12-25T04:43:39.516Z,5.35
2018-12-25T04:44:39.505Z,5.32
2018-12-25T04:45:39.492Z,5.25
2018-12-25T04:46:39.639Z,5.32
2018-12-25T04:47:39.746Z,5.26
2018-12-25T04:48:40.019Z,5.30
2018-12-25T04:49:39.827Z,5.39
2018-12-25T04:50:39.443Z,5.29
2018-12-25T04:51:39.697Z,5.38
2018-12-25T04:52:39.865Z,5.35
2018-12-25T04:53:39.428Z,5.36
2018-12-25T04:54:39.653Z,5.30
2018-12-25T04:55:39.417Z,5.39
2018-12-25T04:56:39.681Z,5.33
2018-12-25T04:57:39.431Z,5.29
2018-12-25T04:58:40.403Z,5.32
2018-12-25T04:59:39.409Z,5.30
2018-12-25T05:00:39.411Z,5.35
2018-12-25T05:01:39.607Z,5.30
2018-12-25T05:02:40.160Z,5.33
2018-12-25T05:03:39.300Z,5.35
2018-12-25T05:04:39.469Z,5.29
2018-12-25T05:05:39.273Z,5.35
2018-12-25T05:06:39.260Z,5.33
2018-12-25T05:07:39.285Z,5.35
2018-12-25T05:08:39.238Z,5.32
2018-12-25T05:09:39.387Z,5.38
2018-12-25T05:10:39.689Z,5.25
2018-12-25T05:11:39.212Z,5.28
2018-12-25T05:12:39.205Z,5.26
2018-12-25T05:13:39.191Z,5.25
2018-12-25T05:14:39.178Z,5.29
2018-12-25T05:15:39.159Z,5.26
2018-12-25T05:16:39.566Z,5.29
2018-12-25T05:17:39.195Z,5.26
2018-12-25T05:18:55.421Z,5.30
2018-12-25T05:19:39.509Z,5.29
2018-12-25T05:20:39.450Z,5.30
2018-12-25T05:21:39.426Z,5.25
2018-12-25T05:22:40.569Z,5.23
2018-12-25T05:23:39.152Z,5.28
2018-12-25T05:24:39.086Z,5.26
2018-12-25T05:25:39.084Z,5.26
2018-12-25T05:26:39.160Z,5.35
2018-12-25T05:27:39.039Z,5.21
2018-12-25T05:28:39.625Z,5.23
2018-12-25T05:29:39.009Z,5.21
2018-12-25T05:30:39.001Z,5.23
2018-12-25T05:31:38.983Z,5.23
2018-12-25T05:32:38.977Z,5.23
2018-12-25T05:33:38.968Z,5.18
2018-12-25T05:34:39.107Z,5.20
2018-12-25T05:35:38.937Z,5.17
2018-12-25T05:36:38.946Z,5.17
2018-12-25T05:37:38.915Z,5.14
2018-12-25T05:38:38.905Z,5.14
2018-12-25T05:39:40.658Z,5.12
2018-12-25T05:40:38.997Z,5.15
2018-12-25T05:41:38.934Z,5.20
2018-12-25T05:42:38.885Z,5.21
2018-12-25T05:43:38.849Z,5.14
2018-12-25T05:44:38.839Z,5.08
2018-12-25T05:45:38.840Z,5.17
2018-12-25T05:46:38.978Z,5.17
2018-12-25T05:47:38.807Z,5.15
2018-12-25T05:48:38.798Z,5.08
2018-12-25T05:49:38.807Z,5.10
2018-12-25T05:50:46.417Z,5.07
2018-12-25T05:51:39.926Z,5.07
2018-12-25T05:52:38.747Z,5.08
2018-12-25T05:53:38.742Z,5.12
2018-12-25T05:54:38.726Z,5.08
2018-12-25T05:55:38.717Z,5.15
2018-12-25T05:56:38.708Z,5.07
2018-12-25T05:57:39.008Z,5.07
2018-12-25T05:58:38.774Z,5.07
2018-12-25T05:59:38.697Z,5.10
2018-12-25T06:00:39.982Z,5.10
2018-12-25T06:01:38.652Z,5.04
2018-12-25T06:02:38.638Z,5.12
2018-12-25T06:03:38.866Z,5.02
2018-12-25T06:04:38.616Z,5.11
2018-12-25T06:05:38.607Z,5.11
2018-12-25T06:06:38.597Z,5.11
2018-12-25T06:07:38.583Z,5.07
2018-12-25T06:08:38.573Z,5.04
2018-12-25T06:09:38.726Z,5.14
2018-12-25T06:10:38.551Z,5.08
2018-12-25T06:11:38.542Z,5.17
2018-12-25T06:12:38.564Z,5.12
2018-12-25T06:13:38.543Z,5.11
2018-12-25T06:14:38.698Z,5.15
2018-12-25T06:15:38.919Z,5.12
2018-12-25T06:16:38.485Z,5.15
2018-12-25T06:17:38.669Z,5.11
2018-12-25T06:18:38.469Z,5.14
2018-12-25T06:19:38.452Z,5.14
2018-12-25T06:20:38.438Z,5.10
2018-12-25T06:21:40.229Z,5.10
2018-12-25T06:22:38.418Z,5.02
2018-12-25T06:23:38.405Z,5.07
2018-12-25T06:24:38.394Z,5.10
2018-12-25T06:25:38.442Z,5.20
2018-12-25T06:26:38.378Z,5.11
2018-12-25T06:27:38.542Z,5.10
2018-12-25T06:28:38.359Z,5.11
2018-12-25T06:29:38.353Z,5.08
2018-12-25T06:30:38.364Z,5.11
2018-12-25T06:31:38.330Z,5.07
2018-12-25T06:32:38.375Z,4.99
2018-12-25T06:33:38.431Z,5.10
2018-12-25T06:34:38.322Z,5.07
2018-12-25T06:35:38.302Z,5.17
2018-12-25T06:36:38.267Z,5.10
2018-12-25T06:37:38.259Z,5.14
2018-12-25T06:38:38.247Z,5.14
2018-12-25T06:39:38.507Z,5.07
2018-12-25T06:40:38.218Z,5.17
2018-12-25T06:41:38.206Z,5.10
2018-12-25T06:42:39.258Z,5.17
2018-12-25T06:43:38.185Z,5.10
2018-12-25T06:44:38.213Z,5.04
2018-12-25T06:45:38.426Z,5.07
2018-12-25T06:46:38.152Z,5.15
2018-12-25T06:47:38.195Z,5.12
2018-12-25T06:48:38.188Z,5.21
2018-12-25T06:49:38.129Z,5.15
2018-12-25T06:50:38.108Z,5.14
2018-12-25T06:51:38.552Z,5.10
2018-12-25T06:52:38.100Z,5.14
2018-12-25T06:53:38.147Z,5.18
2018-12-25T06:54:39.435Z,5.12
2018-12-25T06:55:38.053Z,5.07
2018-12-25T06:56:38.039Z,5.11
2018-12-25T06:57:38.215Z,5.05
2018-12-25T06:58:38.058Z,5.15
2018-12-25T06:59:38.007Z,5.10
2018-12-25T07:00:37.997Z,5.20
2018-12-25T07:01:37.985Z,5.17
2018-12-25T07:02:37.973Z,5.18
2018-12-25T07:03:38.595Z,5.17
2018-12-25T07:04:38.018Z,5.11
2018-12-25T07:05:37.941Z,5.20
2018-12-25T07:06:37.931Z,5.18
2018-12-25T07:07:37.921Z,5.18
2018-12-25T07:08:37.908Z,5.18
2018-12-25T07:09:38.041Z,5.11
2018-12-25T07:10:38.019Z,5.20
2018-12-25T07:11:37.906Z,5.17
2018-12-25T07:12:37.865Z,5.11
2018-12-25T07:13:38.095Z,5.14
2018-12-25T07:14:38.038Z,5.17
2018-12-25T07:15:38.859Z,5.25
2018-12-25T07:16:37.820Z,5.17
2018-12-25T07:17:37.812Z,5.21
2018-12-25T07:18:37.798Z,5.18
2018-12-25T07:19:37.784Z,5.14
2018-12-25T07:20:38.316Z,5.17
2018-12-25T07:21:38.133Z,5.12
2018-12-25T07:22:37.755Z,5.20
2018-12-25T07:23:37.760Z,5.17
2018-12-25T07:24:37.959Z,5.20
2018-12-25T07:25:37.713Z,5.23
2018-12-25T07:26:37.711Z,5.18
2018-12-25T07:27:38.179Z,5.21
2018-12-25T07:28:37.687Z,5.23
2018-12-25T07:29:37.680Z,5.23
2018-12-25T07:30:37.662Z,5.21
2018-12-25T07:31:37.653Z,5.17
2018-12-25T07:32:37.644Z,5.20
2018-12-25T07:33:37.893Z,5.23
2018-12-25T07:34:37.681Z,5.17
2018-12-25T07:35:37.610Z,5.25
2018-12-25T07:36:37.594Z,5.17
2018-12-25T07:37:37.584Z,5.17
2018-12-25T07:38:37.662Z,5.12
2018-12-25T07:39:37.719Z,5.12
2018-12-25T07:40:37.551Z,5.11
2018-12-25T07:41:37.545Z,5.20
2018-12-25T07:42:37.526Z,5.21
2018-12-25T07:43:37.541Z,5.21
2018-12-25T07:44:37.519Z,5.23
2018-12-25T07:45:37.686Z,5.26
2018-12-25T07:46:37.485Z,5.25
2018-12-25T07:47:37.483Z,5.26
2018-12-25T07:48:37.466Z,5.23
2018-12-25T07:49:37.506Z,5.25
2018-12-25T07:50:37.445Z,5.23
2018-12-25T07:51:37.695Z,5.28
2018-12-25T07:52:37.425Z,5.23
2018-12-25T07:53:37.553Z,5.26
2018-12-25T07:54:37.402Z,5.28
2018-12-25T07:55:37.543Z,5.26
2018-12-25T07:56:37.392Z,5.21
2018-12-25T07:57:37.973Z,5.23
2018-12-25T07:58:37.395Z,5.23
2018-12-25T07:59:37.399Z,5.35
2018-12-25T08:00:37.393Z,5.25
2018-12-25T08:01:37.405Z,5.26
2018-12-25T08:02:37.432Z,5.30
2018-12-25T08:03:37.677Z,5.38
2018-12-25T08:04:37.287Z,5.33
2018-12-25T08:05:37.276Z,5.32
2018-12-25T08:06:37.267Z,5.35
2018-12-25T08:07:37.268Z,5.43
2018-12-25T08:08:37.287Z,5.39
2018-12-25T08:09:37.746Z,5.43
2018-12-25T08:10:37.380Z,5.32
2018-12-25T08:11:37.209Z,5.35
2018-12-25T08:12:37.199Z,5.39
2018-12-25T08:13:37.188Z,5.36
2018-12-25T08:14:37.183Z,5.44
2018-12-25T08:15:37.571Z,5.41
2018-12-25T08:16:37.156Z,5.38
2018-12-25T08:17:37.148Z,5.38
2018-12-25T08:18:37.132Z,5.38
2018-12-25T08:19:37.131Z,5.46
2018-12-25T08:20:37.113Z,5.47
2018-12-25T08:21:37.546Z,5.38
2018-12-25T08:22:37.094Z,5.46
2018-12-25T08:23:37.087Z,5.51
2018-12-25T08:24:37.107Z,5.43
2018-12-25T08:25:37.121Z,5.44
2018-12-25T08:26:37.086Z,5.54
2018-12-25T08:27:37.695Z,5.54
2018-12-25T08:28:37.419Z,5.53
2018-12-25T08:29:39.774Z,5.56
2018-12-25T08:30:37.035Z,5.44
2018-12-25T08:31:36.994Z,5.54
2018-12-25T08:32:36.982Z,5.50
2018-12-25T08:33:37.130Z,5.54
2018-12-25T08:34:36.966Z,5.48
2018-12-25T08:35:36.954Z,5.50
2018-12-25T08:36:36.945Z,5.51
2018-12-25T08:37:36.959Z,5.54
2018-12-25T08:38:40.375Z,5.47
2018-12-25T08:39:39.426Z,5.59
2018-12-25T08:40:36.926Z,5.59
2018-12-25T08:41:36.990Z,5.54
2018-12-25T08:42:37.264Z,5.62
2018-12-25T08:43:37.638Z,5.53
2018-12-25T08:44:36.975Z,5.62
2018-12-25T08:45:37.021Z,5.62
2018-12-25T08:46:36.850Z,5.64
2018-12-25T08:47:37.097Z,5.62
2018-12-25T08:48:37.070Z,5.59
2018-12-25T08:49:36.801Z,5.53
2018-12-25T08:50:36.856Z,5.61
2018-12-25T08:51:38.099Z,5.66
2018-12-25T08:52:36.762Z,5.71
2018-12-25T08:53:36.758Z,5.75
2018-12-25T08:54:37.196Z,5.71
2018-12-25T08:55:36.848Z,5.79
2018-12-25T08:56:36.744Z,5.73
2018-12-25T08:57:37.044Z,5.68
2018-12-25T08:58:36.699Z,5.75
2018-12-25T08:59:36.812Z,5.64
2018-12-25T09:00:36.677Z,5.66
2018-12-25T09:01:36.778Z,5.75
2018-12-25T09:02:36.655Z,5.68
2018-12-25T09:03:37.207Z,5.69
2018-12-25T09:04:36.635Z,5.84
2018-12-25T09:05:36.626Z,5.86
2018-12-25T09:06:37.174Z,5.83
2018-12-25T09:07:36.605Z,5.86
2018-12-25T09:08:36.594Z,5.83
2018-12-25T09:09:36.806Z,5.91
2018-12-25T09:10:36.610Z,5.90
2018-12-25T09:11:36.610Z,5.89
2018-12-25T09:12:36.608Z,5.98
2018-12-25T09:13:36.551Z,6.01
2018-12-25T09:14:36.768Z,5.91
2018-12-25T09:15:37.176Z,5.97
2018-12-25T09:16:36.678Z,5.89
2018-12-25T09:17:36.496Z,5.94
2018-12-25T09:18:36.647Z,5.97
2018-12-25T09:19:36.505Z,5.99
2018-12-25T09:20:36.509Z,6.07
2018-12-25T09:21:36.669Z,6.04
2018-12-25T09:22:36.460Z,6.01
2018-12-25T09:23:36.536Z,6.07
2018-12-25T09:24:36.427Z,6.11
2018-12-25T09:25:36.405Z,6.08
2018-12-25T09:26:36.424Z,6.09
2018-12-25T09:27:36.754Z,6.11
2018-12-25T09:28:36.373Z,6.08
2018-12-25T09:29:36.530Z,6.09
2018-12-25T09:30:36.640Z,6.09
2018-12-25T09:31:36.484Z,6.09
2018-12-25T09:32:36.790Z,5.99
2018-12-25T09:33:38.036Z,6.08
2018-12-25T09:34:36.365Z,6.07
2018-12-25T09:35:43.408Z,6.14
2018-12-25T09:36:36.283Z,6.12
2018-12-25T09:37:36.539Z,6.11
2018-12-25T09:38:36.542Z,6.12
2018-12-25T09:39:37.006Z,6.17
2018-12-25T09:40:36.938Z,6.26
2018-12-25T09:41:36.989Z,6.16
2018-12-25T09:42:36.294Z,6.11
2018-12-25T09:43:36.301Z,6.09
2018-12-25T09:44:36.239Z,6.12
2018-12-25T09:45:38.936Z,6.20
2018-12-25T09:46:36.177Z,6.27
2018-12-25T09:47:36.211Z,6.14
2018-12-25T09:48:36.506Z,6.19
2018-12-25T09:49:36.151Z,6.17
2018-12-25T09:50:36.266Z,6.33
2018-12-25T09:51:36.293Z,6.26
2018-12-25T09:52:36.145Z,6.31
2018-12-25T09:53:36.126Z,6.41
2018-12-25T09:54:50.793Z,6.39
2018-12-25T09:55:36.078Z,6.44
2018-12-25T09:56:36.080Z,6.36
2018-12-25T09:57:36.282Z,6.41
2018-12-25T09:58:36.046Z,6.44
2018-12-25T09:59:36.051Z,6.39
2018-12-25T10:00:37.315Z,6.46
2018-12-25T10:01:37.045Z,6.45
2018-12-25T10:02:36.014Z,6.51
2018-12-25T10:03:36.157Z,6.49
2018-12-25T10:04:35.993Z,6.49
2018-12-25T10:05:35.974Z,6.42
2018-12-25T10:06:35.973Z,6.42
2018-12-25T10:07:36.141Z,6.49
2018-12-25T10:08:36.026Z,6.42
2018-12-25T10:09:36.516Z,6.38
2018-12-25T10:10:35.918Z,6.38
2018-12-25T10:11:44.178Z,6.46
2018-12-25T10:12:36.895Z,6.42
2018-12-25T10:13:36.079Z,6.44
2018-12-25T10:14:35.897Z,6.35
2018-12-25T10:15:35.995Z,6.38
2018-12-25T10:16:36.234Z,6.42
2018-12-25T10:17:35.854Z,6.52
2018-12-25T10:18:35.891Z,6.64
2018-12-25T10:19:35.849Z,6.70
2018-12-25T10:20:37.611Z,6.77
2018-12-25T10:21:36.117Z,6.85
2018-12-25T10:22:35.823Z,6.84
2018-12-25T10:23:36.074Z,6.84
2018-12-25T10:24:35.801Z,6.84
2018-12-25T10:25:36.367Z,6.79
2018-12-25T10:26:35.777Z,6.84
2018-12-25T10:27:36.067Z,6.81
2018-12-25T10:28:35.715Z,6.82
2018-12-25T10:29:35.709Z,6.82
2018-12-25T10:30:35.693Z,6.89
2018-12-25T10:31:35.948Z,6.85
2018-12-25T10:32:36.027Z,6.95
2018-12-25T10:33:37.362Z,6.99
2018-12-25T10:34:35.648Z,6.87
2018-12-25T10:35:35.723Z,6.92
2018-12-25T10:36:36.259Z,6.87
2018-12-25T10:37:35.748Z,6.87
2018-12-25T10:38:35.611Z,6.87
2018-12-25T10:39:36.098Z,6.81
2018-12-25T10:40:35.607Z,6.81
2018-12-25T10:41:37.045Z,6.85
2018-12-25T10:42:35.561Z,6.81
2018-12-25T10:43:35.550Z,6.78
2018-12-25T10:44:35.561Z,6.74
2018-12-25T10:45:35.744Z,6.74
2018-12-25T10:46:35.525Z,6.74
2018-12-25T10:47:35.567Z,6.75
2018-12-25T10:48:35.607Z,6.69
2018-12-25T10:49:35.598Z,6.70
2018-12-25T10:50:35.564Z,6.74
2018-12-25T10:51:35.802Z,6.75
2018-12-25T10:52:35.564Z,6.70
2018-12-25T10:53:35.453Z,6.72
2018-12-25T10:55:40.303Z,7.03
2018-12-25T10:56:39.936Z,6.97
2018-12-25T10:57:39.930Z,6.92
2018-12-25T10:58:39.907Z,6.88
2018-12-25T10:59:43.045Z,6.82
2018-12-25T11:00:39.886Z,6.85
2018-12-25T11:01:40.262Z,6.95
2018-12-25T11:02:39.877Z,6.92
2018-12-25T11:03:39.877Z,7.02
2018-12-25T11:04:39.864Z,6.97
2018-12-25T11:05:39.876Z,6.93
2018-12-25T11:06:39.829Z,6.88
2018-12-25T11:07:40.245Z,6.85
2018-12-25T11:08:39.786Z,6.92
2018-12-25T11:09:39.843Z,6.92
2018-12-25T11:10:41.955Z,6.95
2018-12-25T11:11:39.751Z,7.06
2018-12-25T11:12:39.763Z,7.07
2018-12-25T11:13:40.126Z,7.06
2018-12-25T11:14:39.724Z,6.95
2018-12-25T11:15:39.747Z,6.96
2018-12-25T11:16:39.729Z,7.07
2018-12-25T11:17:39.793Z,6.93
2018-12-25T11:18:39.673Z,6.88
2018-12-25T11:19:39.964Z,6.95
2018-12-25T11:20:39.743Z,7.05
2018-12-25T11:21:39.748Z,6.99
2018-12-25T11:22:39.822Z,7.06
2018-12-25T11:23:39.654Z,7.11
2018-12-25T11:24:39.854Z,7.10
2018-12-25T11:25:39.912Z,7.14
2018-12-25T11:26:39.642Z,7.21
2018-12-25T11:27:39.576Z,7.24
2018-12-25T11:28:40.034Z,7.35
2018-12-25T11:29:39.584Z,7.40
2018-12-25T11:30:39.599Z,7.57
2018-12-25T11:31:42.092Z,7.79
2018-12-25T11:32:39.531Z,7.88
2018-12-25T11:33:39.533Z,7.91
2018-12-25T11:34:39.531Z,7.87
2018-12-25T11:35:39.599Z,7.70
2018-12-25T11:36:39.486Z,7.70
2018-12-25T11:37:40.184Z,7.53
2018-12-25T11:38:39.524Z,7.42
2018-12-25T11:39:39.727Z,7.53
2018-12-25T11:40:39.509Z,7.54
2018-12-25T11:41:39.789Z,7.51
2018-12-25T11:42:39.571Z,7.45
2018-12-25T11:43:40.249Z,7.38
2018-12-25T11:44:39.395Z,7.45
2018-12-25T11:45:39.415Z,7.36
2018-12-25T11:46:39.515Z,7.35
2018-12-25T11:47:39.522Z,7.29
2018-12-25T11:48:39.518Z,7.35
2018-12-25T11:49:40.021Z,7.29
2018-12-25T11:50:39.462Z,7.24
2018-12-25T11:51:39.364Z,7.28
2018-12-25T11:52:40.581Z,7.18
2018-12-25T11:53:39.307Z,7.23
2018-12-25T11:54:39.371Z,7.25
2018-12-25T11:55:39.758Z,7.25
2018-12-25T11:56:39.439Z,7.23
2018-12-25T11:57:39.282Z,7.28
2018-12-25T11:58:39.358Z,7.28
2018-12-25T11:59:39.243Z,7.25
2018-12-25T12:00:39.263Z,7.36
2018-12-25T12:01:39.451Z,7.42
2018-12-25T12:02:39.201Z,7.51
2018-12-25T12:03:39.236Z,7.50
2018-12-25T12:04:39.220Z,7.50
2018-12-25T12:05:39.167Z,7.38
2018-12-25T12:06:39.229Z,7.43
2018-12-25T12:07:39.340Z,7.36
2018-12-25T12:08:39.170Z,7.45
2018-12-25T12:09:39.155Z,7.50
2018-12-25T12:10:39.137Z,7.45
2018-12-25T12:11:39.122Z,7.51
2018-12-25T12:12:39.176Z,7.43
2018-12-25T12:13:40.895Z,7.39
2018-12-25T12:14:39.312Z,7.36
2018-12-25T12:15:39.119Z,7.35
2018-12-25T12:16:39.048Z,7.35
2018-12-25T12:17:39.044Z,7.42
2018-12-25T12:18:39.288Z,7.39
2018-12-25T12:19:40.385Z,7.51
2018-12-25T12:20:39.081Z,7.54
2018-12-25T12:21:38.993Z,7.50
2018-12-25T12:22:38.999Z,7.48
2018-12-25T12:23:38.981Z,7.60
2018-12-25T12:24:38.980Z,7.47
2018-12-25T12:25:40.718Z,7.53
2018-12-25T12:26:39.148Z,7.54
2018-12-25T12:27:38.933Z,7.42
2018-12-25T12:28:38.950Z,7.48
2018-12-25T12:29:38.917Z,7.39
2018-12-25T12:30:39.285Z,7.43
2018-12-25T12:31:39.237Z,7.43
2018-12-25T12:32:38.909Z,7.35
2018-12-25T12:33:38.871Z,7.40
2018-12-25T12:34:39.690Z,7.35
2018-12-25T12:35:38.845Z,7.39
2018-12-25T12:36:38.856Z,7.36
2018-12-25T12:37:39.002Z,7.35
2018-12-25T12:38:38.813Z,7.35
2018-12-25T12:39:39.055Z,7.33
2018-12-25T12:40:40.513Z,7.29
2018-12-25T12:41:38.773Z,7.32
2018-12-25T12:42:38.759Z,7.31
2018-12-25T12:43:39.005Z,7.29
2018-12-25T12:44:38.744Z,7.36
2018-12-25T12:45:38.816Z,7.29
2018-12-25T12:46:38.721Z,7.39
2018-12-25T12:47:38.850Z,7.28
2018-12-25T12:48:38.702Z,7.28
2018-12-25T12:49:39.198Z,7.28
2018-12-25T12:50:38.676Z,7.29
2018-12-25T12:51:38.669Z,7.28
2018-12-25T12:52:45.562Z,7.25
2018-12-25T12:53:39.642Z,7.28
2018-12-25T12:54:38.632Z,7.28
2018-12-25T12:55:38.809Z,7.31
2018-12-25T12:56:38.623Z,7.24
2018-12-25T12:57:38.604Z,7.20
2018-12-25T12:58:38.601Z,7.06
2018-12-25T12:59:38.584Z,7.10
2018-12-25T13:00:38.587Z,7.15
2018-12-25T13:01:38.793Z,7.10
2018-12-25T13:02:38.639Z,7.03
2018-12-25T13:03:38.535Z,7.10
2018-12-25T13:04:38.531Z,7.10
2018-12-25T13:05:38.518Z,7.07
2018-12-25T13:06:38.502Z,7.10
2018-12-25T13:07:38.846Z,7.03
2018-12-25T13:08:38.490Z,7.10
2018-12-25T13:09:38.469Z,7.00
2018-12-25T13:10:38.494Z,7.00
2018-12-25T13:11:38.650Z,6.97
2018-12-25T13:12:38.435Z,7.06
2018-12-25T13:13:38.764Z,7.11
2018-12-25T13:14:38.415Z,7.11
2018-12-25T13:15:38.408Z,7.06
2018-12-25T13:16:38.415Z,7.07
2018-12-25T13:17:38.391Z,7.11
2018-12-25T13:18:38.371Z,7.10
2018-12-25T13:19:40.149Z,7.10